createdAt,value
2018-07-30T00:00:54.248Z,927.46
2018-07-30T00:01:54.224Z,927.48
2018-07-30T00:02:54.209Z,927.44
2018-07-30T00:03:54.188Z,927.43
2018-07-30T00:04:54.161Z,927.40
2018-07-30T00:05:54.142Z,927.40
2018-07-30T00:06:54.130Z,927.42
2018-07-30T00:07:54.085Z,927.42
2018-07-30T00:08:54.087Z,927.43
2018-07-30T00:09:54.062Z,927.45
2018-07-30T00:10:54.031Z,927.44
2018-07-30T00:11:54.024Z,927.42
2018-07-30T00:12:54.007Z,927.42
2018-07-30T00:13:53.989Z,927.40
2018-07-30T00:14:53.952Z,927.40
2018-07-30T00:15:53.950Z,927.43
2018-07-30T00:16:53.908Z,927.41
2018-07-30T00:17:53.914Z,927.37
2018-07-30T00:18:53.891Z,927.37
2018-07-30T00:19:53.867Z,927.37
2018-07-30T00:20:53.849Z,927.40
2018-07-30T00:21:53.834Z,927.44
2018-07-30T00:22:53.812Z,927.47
2018-07-30T00:23:53.799Z,927.48
2018-07-30T00:24:53.772Z,927.43
2018-07-30T00:25:53.751Z,927.45
2018-07-30T00:26:53.737Z,927.39
2018-07-30T00:27:53.709Z,927.41
2018-07-30T00:28:53.693Z,927.42
2018-07-30T00:29:53.682Z,927.44
2018-07-30T00:30:53.654Z,927.40
2018-07-30T00:31:53.633Z,927.40
2018-07-30T00:32:53.614Z,927.44
2018-07-30T00:33:53.590Z,927.41
2018-07-30T00:34:53.553Z,927.39
2018-07-30T00:35:53.536Z,927.43
2018-07-30T00:36:53.536Z,927.43
2018-07-30T00:37:53.495Z,927.45
2018-07-30T00:38:53.490Z,927.42
2018-07-30T00:39:53.475Z,927.36
2018-07-30T00:40:53.454Z,927.36
2018-07-30T00:41:53.417Z,927.37
2018-07-30T00:42:53.415Z,927.44
2018-07-30T00:43:53.390Z,927.42
2018-07-30T00:44:53.372Z,927.41
2018-07-30T00:45:53.360Z,927.38
2018-07-30T00:46:53.330Z,927.39
2018-07-30T00:47:53.314Z,927.39
2018-07-30T00:48:53.289Z,927.43
2018-07-30T00:49:53.275Z,927.39
2018-07-30T00:50:53.256Z,927.43
2018-07-30T00:51:53.236Z,927.47
2018-07-30T00:52:53.214Z,927.46
2018-07-30T00:53:53.196Z,927.48
2018-07-30T00:54:53.205Z,927.46
2018-07-30T00:55:53.160Z,927.49
2018-07-30T00:56:53.141Z,927.50
2018-07-30T00:57:53.117Z,927.52
2018-07-30T00:58:53.078Z,927.53
2018-07-30T00:59:53.053Z,927.53
2018-07-30T01:00:53.050Z,927.55
2018-07-30T01:01:53.030Z,927.54
2018-07-30T01:02:52.996Z,927.50
2018-07-30T01:03:52.993Z,927.53
2018-07-30T01:04:52.969Z,927.55
2018-07-30T01:05:52.939Z,927.55
2018-07-30T01:06:52.937Z,927.50
2018-07-30T01:07:52.917Z,927.51
2018-07-30T01:08:52.889Z,927.52
2018-07-30T01:09:52.873Z,927.53
2018-07-30T01:10:52.849Z,927.49
2018-07-30T01:11:52.835Z,927.51
2018-07-30T01:12:52.816Z,927.50
2018-07-30T01:13:52.794Z,927.50
2018-07-30T01:14:52.774Z,927.45
2018-07-30T01:15:52.751Z,927.52
2018-07-30T01:16:52.729Z,927.52
2018-07-30T01:17:52.713Z,927.54
2018-07-30T01:18:52.689Z,927.49
2018-07-30T01:19:52.669Z,927.46
2018-07-30T01:20:52.653Z,927.45
2018-07-30T01:21:52.632Z,927.49
2018-07-30T01:22:52.593Z,927.52
2018-07-30T01:23:52.588Z,927.53
2018-07-30T01:24:52.572Z,927.43
2018-07-30T01:25:52.553Z,927.49
2018-07-30T01:26:52.532Z,927.52
2018-07-30T01:27:52.512Z,927.47
2018-07-30T01:28:52.468Z,927.52
2018-07-30T01:29:52.471Z,927.52
2018-07-30T01:30:52.432Z,927.45
2018-07-30T01:31:52.432Z,927.47
2018-07-30T01:32:52.396Z,927.51
2018-07-30T01:33:52.386Z,927.52
2018-07-30T01:34:52.365Z,927.55
2018-07-30T01:35:52.349Z,927.56
2018-07-30T01:36:52.329Z,927.53
2018-07-30T01:37:52.321Z,927.54
2018-07-30T01:38:52.288Z,927.54
2018-07-30T01:39:52.271Z,927.52
2018-07-30T01:40:52.232Z,927.56
2018-07-30T01:41:52.227Z,927.52
2018-07-30T01:42:52.207Z,927.54
2018-07-30T01:43:52.189Z,927.52
2018-07-30T01:44:52.149Z,927.53
2018-07-30T01:45:52.145Z,927.51
2018-07-30T01:46:52.126Z,927.52
2018-07-30T01:47:52.104Z,927.50
2018-07-30T01:48:52.080Z,927.52
2018-07-30T01:49:52.064Z,927.46
2018-07-30T01:50:52.041Z,927.48
2018-07-30T01:51:52.025Z,927.50
2018-07-30T01:52:51.984Z,927.46
2018-07-30T01:53:51.988Z,927.46
2018-07-30T01:54:51.945Z,927.49
2018-07-30T01:55:51.938Z,927.46
2018-07-30T01:56:51.926Z,927.43
2018-07-30T01:57:51.897Z,927.42
2018-07-30T01:58:51.889Z,927.48
2018-07-30T01:59:51.860Z,927.41
2018-07-30T02:00:51.841Z,927.38
2018-07-30T02:01:51.800Z,927.37
2018-07-30T02:02:51.777Z,927.39
2018-07-30T02:03:51.759Z,927.36
2018-07-30T02:04:51.741Z,927.28
2018-07-30T02:05:51.737Z,927.28
2018-07-30T02:06:51.714Z,927.33
2018-07-30T02:07:51.700Z,927.28
2018-07-30T02:08:51.677Z,927.29
2018-07-30T02:09:51.652Z,927.30
2018-07-30T02:10:51.636Z,927.28
2018-07-30T02:11:51.616Z,927.33
2018-07-30T02:12:51.590Z,927.33
2018-07-30T02:13:51.574Z,927.34
2018-07-30T02:14:51.649Z,927.39
2018-07-30T02:15:51.535Z,927.42
2018-07-30T02:16:51.516Z,927.39
2018-07-30T02:17:51.493Z,927.33
2018-07-30T02:18:51.467Z,927.39
2018-07-30T02:19:51.452Z,927.37
2018-07-30T02:20:51.426Z,927.37
2018-07-30T02:21:51.416Z,927.31
2018-07-30T02:22:51.390Z,927.37
2018-07-30T02:23:51.367Z,927.37
2018-07-30T02:24:51.348Z,927.35
2018-07-30T02:25:51.330Z,927.38
2018-07-30T02:26:51.306Z,927.34
2018-07-30T02:27:51.283Z,927.31
2018-07-30T02:28:51.273Z,927.33
2018-07-30T02:29:51.248Z,927.35
2018-07-30T02:30:51.228Z,927.33
2018-07-30T02:31:51.208Z,927.30
2018-07-30T02:32:51.185Z,927.30
2018-07-30T02:33:51.160Z,927.32
2018-07-30T02:34:51.143Z,927.34
2018-07-30T02:35:51.124Z,927.37
2018-07-30T02:36:51.102Z,927.35
2018-07-30T02:37:51.065Z,927.39
2018-07-30T02:38:51.059Z,927.33
2018-07-30T02:39:51.039Z,927.37
2018-07-30T02:40:51.018Z,927.37
2018-07-30T02:41:51.004Z,927.35
2018-07-30T02:42:50.983Z,927.28
2018-07-30T02:43:50.954Z,927.32
2018-07-30T02:44:50.933Z,927.30
2018-07-30T02:45:50.896Z,927.39
2018-07-30T02:46:50.897Z,927.41
2018-07-30T02:47:50.870Z,927.42
2018-07-30T02:48:50.854Z,927.40
2018-07-30T02:49:50.833Z,927.40
2018-07-30T02:50:50.794Z,927.41
2018-07-30T02:51:50.792Z,927.44
2018-07-30T02:52:50.771Z,927.38
2018-07-30T02:53:50.749Z,927.34
2018-07-30T02:54:50.734Z,927.35
2018-07-30T02:55:50.710Z,927.38
2018-07-30T02:56:50.689Z,927.36
2018-07-30T02:57:50.667Z,927.38
2018-07-30T02:58:50.643Z,927.38
2018-07-30T02:59:50.627Z,927.42
2018-07-30T03:00:50.600Z,927.46
2018-07-30T03:01:50.584Z,927.42
2018-07-30T03:02:50.563Z,927.40
2018-07-30T03:03:50.543Z,927.40
2018-07-30T03:04:50.522Z,927.40
2018-07-30T03:05:50.497Z,927.35
2018-07-30T03:06:50.464Z,927.39
2018-07-30T03:07:50.460Z,927.34
2018-07-30T03:08:50.435Z,927.32
2018-07-30T03:09:50.419Z,927.28
2018-07-30T03:10:50.397Z,927.27
2018-07-30T03:11:50.378Z,927.24
2018-07-30T03:12:50.335Z,927.25
2018-07-30T03:13:50.335Z,927.22
2018-07-30T03:14:50.309Z,927.25
2018-07-30T03:15:50.294Z,927.27
2018-07-30T03:16:50.279Z,927.27
2018-07-30T03:17:50.252Z,927.31
2018-07-30T03:18:50.227Z,927.32
2018-07-30T03:19:50.215Z,927.32
2018-07-30T03:20:50.189Z,927.34
2018-07-30T03:21:50.144Z,927.34
2018-07-30T03:22:50.152Z,927.33
2018-07-30T03:23:50.131Z,927.27
2018-07-30T03:24:50.108Z,927.31
2018-07-30T03:25:50.089Z,927.35
2018-07-30T03:26:50.062Z,927.32
2018-07-30T03:27:50.039Z,927.28
2018-07-30T03:28:50.132Z,927.30
2018-07-30T03:29:49.997Z,927.29
2018-07-30T03:30:49.985Z,927.27
2018-07-30T03:31:49.942Z,927.29
2018-07-30T03:32:49.939Z,927.35
2018-07-30T03:33:49.921Z,927.34
2018-07-30T03:34:49.876Z,927.37
2018-07-30T03:35:49.861Z,927.37
2018-07-30T03:36:49.856Z,927.42
2018-07-30T03:37:49.835Z,927.34
2018-07-30T03:38:49.791Z,927.38
2018-07-30T03:39:49.789Z,927.37
2018-07-30T03:40:49.767Z,927.41
2018-07-30T03:41:49.747Z,927.38
2018-07-30T03:42:49.730Z,927.39
2018-07-30T03:43:49.705Z,927.42
2018-07-30T03:44:49.683Z,927.44
2018-07-30T03:45:49.662Z,927.47
2018-07-30T03:46:49.648Z,927.47
2018-07-30T03:47:49.626Z,927.50
2018-07-30T03:48:49.598Z,927.45
2018-07-30T03:49:49.584Z,927.44
2018-07-30T03:50:49.564Z,927.46
2018-07-30T03:51:49.544Z,927.43
2018-07-30T03:52:49.504Z,927.46
2018-07-30T03:54:22.697Z,927.48
2018-07-30T03:54:49.493Z,927.46
2018-07-30T03:55:49.457Z,927.46
2018-07-30T03:56:49.432Z,927.43
2018-07-30T03:57:49.396Z,927.41
2018-07-30T03:58:49.394Z,927.42
2018-07-30T03:59:49.373Z,927.46
2018-07-30T04:00:49.356Z,927.46
2018-07-30T04:01:49.336Z,927.43
2018-07-30T04:02:49.294Z,927.44
2018-07-30T04:03:49.294Z,927.46
2018-07-30T04:04:49.269Z,927.40
2018-07-30T04:05:49.276Z,927.47
2018-07-30T04:06:49.227Z,927.40
2018-07-30T04:07:49.207Z,927.42
2018-07-30T04:08:49.184Z,927.39
2018-07-30T04:09:49.159Z,927.34
2018-07-30T04:10:49.139Z,927.39
2018-07-30T04:11:49.122Z,927.39
2018-07-30T04:12:49.169Z,927.39
2018-07-30T04:13:49.079Z,927.36
2018-07-30T04:14:49.059Z,927.37
2018-07-30T04:15:49.042Z,927.35
2018-07-30T04:16:48.997Z,927.33
2018-07-30T04:17:48.995Z,927.39
2018-07-30T04:18:48.975Z,927.38
2018-07-30T04:19:48.952Z,927.40
2018-07-30T04:20:48.931Z,927.34
2018-07-30T04:21:48.888Z,927.31
2018-07-30T04:22:48.885Z,927.30
2018-07-30T04:23:48.866Z,927.33
2018-07-30T04:24:48.832Z,927.34
2018-07-30T04:25:48.827Z,927.29
2018-07-30T04:26:48.788Z,927.28
2018-07-30T04:27:48.787Z,927.28
2018-07-30T04:28:48.762Z,927.32
2018-07-30T04:29:48.742Z,927.32
2018-07-30T04:30:48.725Z,927.31
2018-07-30T04:31:48.700Z,927.25
2018-07-30T04:32:49.086Z,927.28
2018-07-30T04:33:48.653Z,927.32
2018-07-30T04:34:48.637Z,927.29
2018-07-30T04:35:48.618Z,927.27
2018-07-30T04:36:48.598Z,927.31
2018-07-30T04:37:48.573Z,927.31
2018-07-30T04:38:48.553Z,927.20
2018-07-30T04:39:48.534Z,927.24
2018-07-30T04:40:48.493Z,927.27
2018-07-30T04:41:48.485Z,927.29
2018-07-30T04:42:48.465Z,927.24
2018-07-30T04:43:48.504Z,927.17
2018-07-30T04:44:48.432Z,927.22
2018-07-30T04:45:48.387Z,927.26
2018-07-30T04:46:48.380Z,927.24
2018-07-30T04:47:48.365Z,927.21
2018-07-30T04:48:48.340Z,927.19
2018-07-30T04:49:48.320Z,927.20
2018-07-30T04:50:48.301Z,927.17
2018-07-30T04:51:48.274Z,927.20
2018-07-30T04:52:48.235Z,927.18
2018-07-30T04:53:48.231Z,927.09
2018-07-30T04:54:48.194Z,927.12
2018-07-30T04:55:48.188Z,927.09
2018-07-30T04:56:48.172Z,927.05
2018-07-30T04:57:48.151Z,927.06
2018-07-30T04:58:48.134Z,927.08
2018-07-30T04:59:48.115Z,927.07
2018-07-30T05:00:48.091Z,927.03
2018-07-30T05:01:48.068Z,927.07
2018-07-30T05:02:48.044Z,927.05
2018-07-30T05:03:48.071Z,927.04
2018-07-30T05:04:47.997Z,926.98
2018-07-30T05:05:47.980Z,927.03
2018-07-30T05:06:47.936Z,927.03
2018-07-30T05:07:47.922Z,926.96
2018-07-30T05:08:47.923Z,926.94
2018-07-30T05:09:47.893Z,926.97
2018-07-30T05:10:47.853Z,926.98
2018-07-30T05:11:47.850Z,926.94
2018-07-30T05:12:47.831Z,926.95
2018-07-30T05:13:47.791Z,926.96
2018-07-30T05:14:47.793Z,926.95
2018-07-30T05:15:47.767Z,926.91
2018-07-30T05:16:47.746Z,926.90
2018-07-30T05:17:47.725Z,926.90
2018-07-30T05:18:47.682Z,926.89
2018-07-30T05:19:47.685Z,926.90
2018-07-30T05:20:47.666Z,926.90
2018-07-30T05:21:47.644Z,926.93
2018-07-30T05:22:47.624Z,926.88
2018-07-30T05:23:47.593Z,926.91
2018-07-30T05:24:47.571Z,926.91
2018-07-30T05:25:47.554Z,926.85
2018-07-30T05:26:47.536Z,926.89
2018-07-30T05:27:47.507Z,926.81
2018-07-30T05:28:47.476Z,926.83
2018-07-30T05:29:47.446Z,926.83
2018-07-30T05:30:47.449Z,926.83
2018-07-30T05:31:47.425Z,926.78
2018-07-30T05:33:20.613Z,926.75
2018-07-30T05:33:47.362Z,926.83
2018-07-30T05:34:47.363Z,926.80
2018-07-30T05:35:47.341Z,926.75
2018-07-30T05:36:47.315Z,926.75
2018-07-30T05:37:47.294Z,926.79
2018-07-30T05:38:47.277Z,926.76
2018-07-30T05:39:47.256Z,926.72
2018-07-30T05:40:47.230Z,926.74
2018-07-30T05:41:47.212Z,926.78
2018-07-30T05:42:47.248Z,926.82
2018-07-30T05:43:47.166Z,926.81
2018-07-30T05:44:47.147Z,926.81
2018-07-30T05:45:47.128Z,926.74
2018-07-30T05:46:47.090Z,926.72
2018-07-30T05:47:47.081Z,926.80
2018-07-30T05:48:47.041Z,926.81
2018-07-30T05:49:47.040Z,926.77
2018-07-30T05:50:47.025Z,926.75
2018-07-30T05:51:47.002Z,926.76
2018-07-30T05:52:46.977Z,926.71
2018-07-30T05:53:46.957Z,926.75
2018-07-30T05:54:46.940Z,926.76
2018-07-30T05:55:46.917Z,926.72
2018-07-30T05:56:46.892Z,926.78
2018-07-30T05:57:46.866Z,926.82
2018-07-30T05:58:46.846Z,926.85
2018-07-30T05:59:46.876Z,926.88
2018-07-30T06:00:46.806Z,926.83
2018-07-30T06:01:46.789Z,926.84
2018-07-30T06:02:46.768Z,926.77
2018-07-30T06:03:46.739Z,926.77
2018-07-30T06:04:46.716Z,926.75
2018-07-30T06:05:46.699Z,926.74
2018-07-30T06:06:46.678Z,926.76
2018-07-30T06:07:46.656Z,926.75
2018-07-30T06:08:46.619Z,926.85
2018-07-30T06:09:46.728Z,926.84
2018-07-30T06:10:46.571Z,926.81
2018-07-30T06:11:46.549Z,926.78
2018-07-30T06:12:46.547Z,926.79
2018-07-30T06:13:46.508Z,926.77
2018-07-30T06:14:46.504Z,926.80
2018-07-30T06:15:46.484Z,926.81
2018-07-30T06:16:46.464Z,926.82
2018-07-30T06:17:46.442Z,926.84
2018-07-30T06:18:46.412Z,926.80
2018-07-30T06:19:46.390Z,926.78
2018-07-30T06:20:46.364Z,926.73
2018-07-30T06:21:46.346Z,926.71
2018-07-30T06:22:46.323Z,926.71
2018-07-30T06:23:46.307Z,926.71
2018-07-30T06:24:46.280Z,926.69
2018-07-30T06:25:46.262Z,926.69
2018-07-30T06:26:46.222Z,926.67
2018-07-30T06:27:46.217Z,926.66
2018-07-30T06:28:46.196Z,926.67
2018-07-30T06:29:46.177Z,926.70
2018-07-30T06:30:46.153Z,926.69
2018-07-30T06:31:46.175Z,926.71
2018-07-30T06:32:46.110Z,926.68
2018-07-30T06:33:46.070Z,926.74
2018-07-30T06:34:46.059Z,926.71
2018-07-30T06:35:46.025Z,926.67
2018-07-30T06:36:46.021Z,926.67
2018-07-30T06:37:45.995Z,926.72
2018-07-30T06:38:45.971Z,926.72
2018-07-30T06:39:45.951Z,926.72
2018-07-30T06:40:45.937Z,926.69
2018-07-30T06:41:45.909Z,926.74
2018-07-30T06:42:45.888Z,926.69
2018-07-30T06:43:45.862Z,926.72
2018-07-30T06:44:45.844Z,926.68
2018-07-30T06:45:45.821Z,926.69
2018-07-30T06:46:45.802Z,926.73
2018-07-30T06:47:45.779Z,926.74
2018-07-30T06:48:45.752Z,926.73
2018-07-30T06:49:45.730Z,926.72
2018-07-30T06:50:45.713Z,926.70
2018-07-30T06:51:45.690Z,926.68
2018-07-30T06:52:45.662Z,926.65
2018-07-30T06:53:45.647Z,926.62
2018-07-30T06:54:45.625Z,926.64
2018-07-30T06:55:45.608Z,926.66
2018-07-30T06:56:45.580Z,926.65
2018-07-30T06:57:45.554Z,926.66
2018-07-30T06:58:45.536Z,926.66
2018-07-30T06:59:45.516Z,926.68
2018-07-30T07:00:45.473Z,926.67
2018-07-30T07:01:45.451Z,926.65
2018-07-30T07:02:45.448Z,926.65
2018-07-30T07:03:45.421Z,926.65
2018-07-30T07:04:45.403Z,926.67
2018-07-30T07:05:45.382Z,926.63
2018-07-30T07:06:45.341Z,926.60
2018-07-30T07:07:45.333Z,926.65
2018-07-30T07:08:45.312Z,926.60
2018-07-30T07:09:45.289Z,926.60
2018-07-30T07:10:45.272Z,926.59
2018-07-30T07:11:45.252Z,926.55
2018-07-30T07:12:45.231Z,926.59
2018-07-30T07:13:45.206Z,926.66
2018-07-30T07:14:45.181Z,926.64
2018-07-30T07:15:45.162Z,926.63
2018-07-30T07:16:45.153Z,926.63
2018-07-30T07:17:45.118Z,926.59
2018-07-30T07:18:45.092Z,926.61
2018-07-30T07:19:45.075Z,926.66
2018-07-30T07:20:45.122Z,926.66
2018-07-30T07:21:45.111Z,926.62
2018-07-30T07:22:45.010Z,926.61
2018-07-30T07:23:44.989Z,926.63
2018-07-30T07:24:44.949Z,926.60
2018-07-30T07:25:44.943Z,926.62
2018-07-30T07:26:44.915Z,926.62
2018-07-30T07:27:44.898Z,926.59
2018-07-30T07:28:44.853Z,926.59
2018-07-30T07:29:44.859Z,926.52
2018-07-30T07:30:44.826Z,926.59
2018-07-30T07:31:44.791Z,926.57
2018-07-30T07:32:44.768Z,926.60
2018-07-30T07:33:44.743Z,926.61
2018-07-30T07:34:44.743Z,926.63
2018-07-30T07:35:44.721Z,926.61
2018-07-30T07:36:44.695Z,926.55
2018-07-30T07:37:44.678Z,926.53
2018-07-30T07:38:44.661Z,926.53
2018-07-30T07:39:44.633Z,926.54
2018-07-30T07:40:44.605Z,926.58
2018-07-30T07:41:44.570Z,926.56
2018-07-30T07:42:44.562Z,926.50
2018-07-30T07:43:44.546Z,926.56
2018-07-30T07:44:44.521Z,926.52
2018-07-30T07:45:44.503Z,926.56
2018-07-30T07:46:44.475Z,926.53
2018-07-30T07:47:44.464Z,926.55
2018-07-30T07:48:44.435Z,926.55
2018-07-30T07:49:44.412Z,926.55
2018-07-30T07:50:44.638Z,926.53
2018-07-30T07:51:44.366Z,926.55
2018-07-30T07:52:44.351Z,926.57
2018-07-30T07:53:44.319Z,926.59
2018-07-30T07:54:44.300Z,926.58
2018-07-30T07:55:44.264Z,926.59
2018-07-30T07:56:44.251Z,926.61
2018-07-30T07:57:44.214Z,926.64
2018-07-30T07:58:44.210Z,926.63
2018-07-30T07:59:44.194Z,926.68
2018-07-30T08:00:44.166Z,926.67
2018-07-30T08:01:44.143Z,926.68
2018-07-30T08:02:44.118Z,926.72
2018-07-30T08:03:44.103Z,926.70
2018-07-30T08:04:44.078Z,926.66
2018-07-30T08:05:44.055Z,926.68
2018-07-30T08:06:44.033Z,926.69
2018-07-30T08:07:44.015Z,926.69
2018-07-30T08:08:43.988Z,926.69
2018-07-30T08:09:44.011Z,926.76
2018-07-30T08:10:43.947Z,926.76
2018-07-30T08:11:43.917Z,926.81
2018-07-30T08:12:43.896Z,926.82
2018-07-30T08:13:43.877Z,926.75
2018-07-30T08:14:43.850Z,926.74
2018-07-30T08:15:43.828Z,926.74
2018-07-30T08:16:43.811Z,926.73
2018-07-30T08:17:43.788Z,926.75
2018-07-30T08:18:43.768Z,926.69
2018-07-30T08:19:43.840Z,926.72
2018-07-30T08:20:43.698Z,926.75
2018-07-30T08:21:43.699Z,926.72
2018-07-30T08:22:43.674Z,926.78
2018-07-30T08:23:43.656Z,926.81
2018-07-30T08:24:43.627Z,926.83
2018-07-30T08:25:43.610Z,926.85
2018-07-30T08:26:43.588Z,926.78
2018-07-30T08:27:43.561Z,926.77
2018-07-30T08:28:43.541Z,926.77
2018-07-30T08:29:43.539Z,926.85
2018-07-30T08:30:43.493Z,926.86
2018-07-30T08:31:43.453Z,926.87
2018-07-30T08:32:43.450Z,926.87
2018-07-30T08:33:43.437Z,926.93
2018-07-30T08:34:43.413Z,926.93
2018-07-30T08:35:43.365Z,926.91
2018-07-30T08:36:43.366Z,926.89
2018-07-30T08:37:43.329Z,926.89
2018-07-30T08:38:43.319Z,926.91
2018-07-30T08:39:43.292Z,926.89
2018-07-30T08:40:43.275Z,926.92
2018-07-30T08:41:43.253Z,926.94
2018-07-30T08:42:43.210Z,926.95
2018-07-30T08:43:43.188Z,926.99
2018-07-30T08:44:43.183Z,926.91
2018-07-30T08:45:43.162Z,926.93
2018-07-30T08:46:43.135Z,926.98
2018-07-30T08:47:43.105Z,927.02
2018-07-30T08:48:43.095Z,927.03
2018-07-30T08:49:43.067Z,927.06
2018-07-30T08:50:43.048Z,927.07
2018-07-30T08:51:43.023Z,927.10
2018-07-30T08:52:43.008Z,927.11
2018-07-30T08:53:42.977Z,927.08
2018-07-30T08:54:42.957Z,927.08
2018-07-30T08:55:42.937Z,927.11
2018-07-30T08:56:42.916Z,927.10
2018-07-30T08:57:42.895Z,927.12
2018-07-30T08:58:42.866Z,927.15
2018-07-30T08:59:42.845Z,927.15
2018-07-30T09:00:42.827Z,927.19
2018-07-30T09:01:42.806Z,927.21
2018-07-30T09:02:42.774Z,927.23
2018-07-30T09:03:42.759Z,927.25
2018-07-30T09:04:42.711Z,927.24
2018-07-30T09:05:42.711Z,927.27
2018-07-30T09:06:42.691Z,927.27
2018-07-30T09:07:42.644Z,927.31
2018-07-30T09:08:42.641Z,927.33
2018-07-30T09:09:42.600Z,927.41
2018-07-30T09:10:42.591Z,927.41
2018-07-30T09:11:42.573Z,927.42
2018-07-30T09:12:42.589Z,927.44
2018-07-30T09:13:42.523Z,927.43
2018-07-30T09:14:42.501Z,927.41
2018-07-30T09:15:42.482Z,927.47
2018-07-30T09:16:42.458Z,927.50
2018-07-30T09:17:42.435Z,927.49
2018-07-30T09:18:42.410Z,927.56
2018-07-30T09:19:42.390Z,927.55
2018-07-30T09:20:42.361Z,927.61
2018-07-30T09:21:42.349Z,927.63
2018-07-30T09:22:42.325Z,927.66
2018-07-30T09:23:42.299Z,927.73
2018-07-30T09:24:42.269Z,927.80
2018-07-30T09:25:42.246Z,927.80
2018-07-30T09:26:42.228Z,927.78
2018-07-30T09:27:42.210Z,927.83
2018-07-30T09:28:42.190Z,927.79
2018-07-30T09:29:42.145Z,927.89
2018-07-30T09:30:42.130Z,927.90
2018-07-30T09:31:42.092Z,927.98
2018-07-30T09:32:42.111Z,927.97
2018-07-30T09:33:42.064Z,927.97
2018-07-30T09:34:42.047Z,928.01
2018-07-30T09:35:42.017Z,928.03
2018-07-30T09:36:42.000Z,927.99
2018-07-30T09:37:41.974Z,928.04
2018-07-30T09:38:41.994Z,928.03
2018-07-30T09:39:42.086Z,928.06
2018-07-30T09:40:41.904Z,928.10
2018-07-30T09:41:41.882Z,928.02
2018-07-30T09:42:41.859Z,928.12
2018-07-30T09:43:41.835Z,928.13
2018-07-30T09:44:41.826Z,928.10
2018-07-30T09:45:41.792Z,928.11
2018-07-30T09:46:41.765Z,928.16
2018-07-30T09:47:41.745Z,928.13
2018-07-30T09:48:41.705Z,928.17
2018-07-30T09:49:41.694Z,928.17
2018-07-30T09:50:41.777Z,928.24
2018-07-30T09:51:41.652Z,928.23
2018-07-30T09:52:41.621Z,928.26
2018-07-30T09:53:41.600Z,928.26
2018-07-30T09:54:41.561Z,928.29
2018-07-30T09:55:41.534Z,928.26
2018-07-30T09:56:41.528Z,928.28
2018-07-30T09:57:41.488Z,928.26
2018-07-30T09:58:41.478Z,928.27
2018-07-30T09:59:41.458Z,928.33
2018-07-30T10:00:41.438Z,928.32
2018-07-30T10:01:41.415Z,928.34
2018-07-30T10:02:41.369Z,928.32
2018-07-30T10:03:41.362Z,928.35
2018-07-30T10:04:41.339Z,928.31
2018-07-30T10:05:41.317Z,928.36
2018-07-30T10:06:41.313Z,928.37
2018-07-30T10:07:41.265Z,928.41
2018-07-30T10:08:41.245Z,928.38
2018-07-30T10:09:41.202Z,928.44
2018-07-30T10:10:41.176Z,928.40
2018-07-30T10:11:41.190Z,928.34
2018-07-30T10:12:41.152Z,928.46
2018-07-30T10:13:41.125Z,928.42
2018-07-30T10:14:41.101Z,928.47
2018-07-30T10:15:41.062Z,928.48
2018-07-30T10:16:41.051Z,928.54
2018-07-30T10:17:41.077Z,928.51
2018-07-30T10:18:40.990Z,928.58
2018-07-30T10:19:40.987Z,928.52
2018-07-30T10:20:40.968Z,928.53
2018-07-30T10:21:40.938Z,928.62
2018-07-30T10:22:40.911Z,928.67
2018-07-30T10:23:40.916Z,928.67
2018-07-30T10:24:40.849Z,928.70
2018-07-30T10:25:40.841Z,928.66
2018-07-30T10:26:40.820Z,928.69
2018-07-30T10:27:40.795Z,928.72
2018-07-30T10:28:40.771Z,928.71
2018-07-30T10:29:40.749Z,928.71
2018-07-30T10:30:40.769Z,928.75
2018-07-30T10:31:40.709Z,928.74
2018-07-30T10:32:40.675Z,928.79
2018-07-30T10:33:40.661Z,928.83
2018-07-30T10:34:40.634Z,928.81
2018-07-30T10:35:40.592Z,928.76
2018-07-30T10:36:40.571Z,928.76
2018-07-30T10:37:40.560Z,928.80
2018-07-30T10:38:40.544Z,928.81
2018-07-30T10:39:40.515Z,928.85
2018-07-30T10:40:40.493Z,928.89
2018-07-30T10:41:40.472Z,928.91
2018-07-30T10:42:40.450Z,928.96
2018-07-30T10:43:40.422Z,928.92
2018-07-30T10:44:40.400Z,928.96
2018-07-30T10:45:40.387Z,928.98
2018-07-30T10:46:40.359Z,928.99
2018-07-30T10:47:40.335Z,929.02
2018-07-30T10:48:40.311Z,928.97
2018-07-30T10:49:40.285Z,928.89
2018-07-30T10:50:40.270Z,928.97
2018-07-30T10:51:40.243Z,928.97
2018-07-30T10:52:40.205Z,928.91
2018-07-30T10:53:40.205Z,928.93
2018-07-30T10:54:40.163Z,929.01
2018-07-30T10:55:40.161Z,929.09
2018-07-30T10:56:40.136Z,929.08
2018-07-30T10:57:40.114Z,929.06
2018-07-30T10:58:40.126Z,929.06
2018-07-30T10:59:40.062Z,929.05
2018-07-30T11:00:40.054Z,929.02
2018-07-30T11:01:40.017Z,929.22
2018-07-30T11:02:39.995Z,929.30
2018-07-30T11:03:39.976Z,929.32
2018-07-30T11:04:39.949Z,929.30
2018-07-30T11:05:39.914Z,929.22
2018-07-30T11:06:39.911Z,929.20
2018-07-30T11:07:39.936Z,929.19
2018-07-30T11:08:39.868Z,929.15
2018-07-30T11:09:39.908Z,929.15
2018-07-30T11:10:39.834Z,929.17
2018-07-30T11:11:39.801Z,929.23
2018-07-30T11:12:39.762Z,929.18
2018-07-30T11:13:39.763Z,929.21
2018-07-30T11:14:39.771Z,929.26
2018-07-30T11:15:39.722Z,929.31
2018-07-30T11:16:39.707Z,929.30
2018-07-30T11:17:39.678Z,929.33
2018-07-30T11:18:39.668Z,929.32
2018-07-30T11:19:39.646Z,929.36
2018-07-30T11:20:39.618Z,929.30
2018-07-30T11:21:39.640Z,929.35
2018-07-30T11:22:39.564Z,929.32
2018-07-30T11:23:39.545Z,929.33
2018-07-30T11:24:39.538Z,929.39
2018-07-30T11:25:39.499Z,929.47
2018-07-30T11:26:39.507Z,929.48
2018-07-30T11:27:39.488Z,929.49
2018-07-30T11:28:39.459Z,929.51
2018-07-30T11:29:39.444Z,929.47
2018-07-30T11:30:39.424Z,929.51
2018-07-30T11:31:39.427Z,929.49
2018-07-30T11:32:39.386Z,929.57
2018-07-30T11:33:39.430Z,929.61
2018-07-30T11:34:39.349Z,929.64
2018-07-30T11:35:39.327Z,929.49
2018-07-30T11:36:39.308Z,929.51
2018-07-30T11:37:39.288Z,929.47
2018-07-30T11:38:39.252Z,929.43
2018-07-30T11:39:39.303Z,929.34
2018-07-30T11:40:39.236Z,929.34
2018-07-30T11:41:39.203Z,929.26
2018-07-30T11:42:39.196Z,929.29
2018-07-30T11:43:39.201Z,929.30
2018-07-30T11:44:39.171Z,929.30
2018-07-30T11:45:39.146Z,929.43
2018-07-30T11:46:39.125Z,929.37
2018-07-30T11:47:39.103Z,929.32
2018-07-30T11:48:39.119Z,929.36
2018-07-30T11:49:39.073Z,929.28
2018-07-30T11:50:39.045Z,929.35
2018-07-30T11:51:39.033Z,929.34
2018-07-30T11:52:39.006Z,929.32
2018-07-30T11:53:39.001Z,929.39
2018-07-30T11:54:38.972Z,929.41
2018-07-30T11:55:38.947Z,929.39
2018-07-30T11:56:38.929Z,929.37
2018-07-30T11:57:38.907Z,929.38
2018-07-30T11:58:38.892Z,929.52
2018-07-30T11:59:38.874Z,929.56
2018-07-30T12:00:38.851Z,929.57
2018-07-30T12:01:38.812Z,929.60
2018-07-30T12:02:38.806Z,929.70
2018-07-30T12:03:38.796Z,929.80
2018-07-30T12:04:38.767Z,929.86
2018-07-30T12:05:38.726Z,929.92
2018-07-30T12:06:38.730Z,930.01
2018-07-30T12:07:38.715Z,930.15
2018-07-30T12:08:38.690Z,930.25
2018-07-30T12:09:38.668Z,930.37
2018-07-30T12:10:38.647Z,930.53
2018-07-30T12:11:38.610Z,930.58
2018-07-30T12:12:38.606Z,930.54
2018-07-30T12:13:38.696Z,930.54
2018-07-30T12:14:38.578Z,930.54
2018-07-30T12:15:38.554Z,930.51
2018-07-30T12:16:38.530Z,930.56
2018-07-30T12:17:38.514Z,930.54
2018-07-30T12:18:38.500Z,930.53
2018-07-30T12:19:38.481Z,930.65
2018-07-30T12:20:38.461Z,930.66
2018-07-30T12:21:38.486Z,930.75
2018-07-30T12:22:38.425Z,930.80
2018-07-30T12:23:38.432Z,930.78
2018-07-30T12:24:38.386Z,930.90
2018-07-30T12:25:38.353Z,931.04
2018-07-30T12:26:38.337Z,931.02
2018-07-30T12:27:38.336Z,930.84
2018-07-30T12:28:38.318Z,930.51